Terminal Aerodrome Forecast
Issued by NWS Amarillo, TX

Home | Current Version | Previous Version | Text Only | Print | Product List | Glossary On
Versions: 1 2 3 4 5 6 7 8 9 10 11 12 13 14 15
000
FTUS44 KAMA 021100
TAFDHT
TAF
KDHT 021138Z 0212/0312 34007KT P6SM SCT090 OVC300
     FM021600 13009KT P6SM SCT040 SCT100 BKN300
     FM022000 13010KT P6SM VCTS SCT040CB SCT120 BKN300
     FM030400 VRB06KT P6SM SCT020 BKN100 OVC300=

USA.gov is the U.S. government's official web portal to all federal, state and local government web resources and services.